Boskydell, Illinois
Current Conditions -  °F | °C
As of 7:52 AM on Saturday 25 Oct 2014 (Local Time) from KMDH Reporting Station
Haze Haze  
Wind Chill: 57°   Ceiling: Unl
Heat Index: 57°   Visibility: 6mi
Dew Point: 55°   Wind: 0mph
Humidity: 93%   Direction: NA
Pressure: 30.03"   Gusts: NA
Location:  37.7248°N, 89.197°W
Report Text: KMDH 251252Z AUTO 00000KT 6SM BR FEW042 14/13 A3003 RMK AO2 SLP168 T01390128
Loading
Personal Weather Stations






























Interactive Weather Map
Tropical Storm Tracking
New forecast layout! Learn more

10-Day Weather Forecast

Advertisements
Track Severe Weather on mobile